sensor_id;sensor_type;location;lat;lon;timestamp;P1;durP1;ratioP1;P2;durP2;ratioP2
46391;SDS011;32098;49.448;7.904;2023-02-24T00:01:51;43.20;;;23.10;;
46391;SDS011;32098;49.448;7.904;2023-02-24T00:04:26;39.40;;;21.97;;
46391;SDS011;32098;49.448;7.904;2023-02-24T00:06:54;44.60;;;24.10;;
46391;SDS011;32098;49.448;7.904;2023-02-24T00:09:23;43.00;;;23.80;;
46391;SDS011;32098;49.448;7.904;2023-02-24T00:11:52;42.90;;;22.57;;
46391;SDS011;32098;49.448;7.904;2023-02-24T00:14:29;39.97;;;23.07;;
46391;SDS011;32098;49.448;7.904;2023-02-24T00:16:58;42.97;;;23.77;;
46391;SDS011;32098;49.448;7.904;2023-02-24T00:19:28;38.70;;;22.07;;
46391;SDS011;32098;49.448;7.904;2023-02-24T00:21:59;42.07;;;22.90;;
46391;SDS011;32098;49.448;7.904;2023-02-24T00:24:27;39.67;;;22.17;;
46391;SDS011;32098;49.448;7.904;2023-02-24T00:26:55;41.57;;;23.13;;
46391;SDS011;32098;49.448;7.904;2023-02-24T00:29:26;43.10;;;23.80;;
46391;SDS011;32098;49.448;7.904;2023-02-24T00:31:55;39.30;;;23.03;;
46391;SDS011;32098;49.448;7.904;2023-02-24T00:34:30;42.23;;;23.07;;
46391;SDS011;32098;49.448;7.904;2023-02-24T00:36:59;41.53;;;23.37;;
46391;SDS011;32098;49.448;7.904;2023-02-24T00:39:26;43.17;;;23.20;;
46391;SDS011;32098;49.448;7.904;2023-02-24T00:42:04;43.13;;;24.53;;
46391;SDS011;32098;49.448;7.904;2023-02-24T00:44:34;44.90;;;23.60;;
46391;SDS011;32098;49.448;7.904;2023-02-24T00:47:04;42.47;;;23.93;;
46391;SDS011;32098;49.448;7.904;2023-02-24T00:49:32;41.77;;;24.00;;
46391;SDS011;32098;49.448;7.904;2023-02-24T00:52:10;43.37;;;24.33;;
46391;SDS011;32098;49.448;7.904;2023-02-24T00:54:43;45.23;;;25.80;;
46391;SDS011;32098;49.448;7.904;2023-02-24T00:57:11;44.60;;;24.37;;
46391;SDS011;32098;49.448;7.904;2023-02-24T00:59:38;41.87;;;23.30;;
46391;SDS011;32098;49.448;7.904;2023-02-24T01:02:05;44.17;;;24.33;;
46391;SDS011;32098;49.448;7.904;2023-02-24T01:04:33;40.57;;;23.17;;
46391;SDS011;32098;49.448;7.904;2023-02-24T01:06:59;40.57;;;23.17;;
46391;SDS011;32098;49.448;7.904;2023-02-24T01:09:30;43.73;;;25.00;;
46391;SDS011;32098;49.448;7.904;2023-02-24T01:11:58;45.73;;;24.80;;
46391;SDS011;32098;49.448;7.904;2023-02-24T01:15:05;44.90;;;23.33;;
46391;SDS011;32098;49.448;7.904;2023-02-24T01:17:35;44.60;;;24.23;;
46391;SDS011;32098;49.448;7.904;2023-02-24T01:20:04;44.63;;;23.43;;
46391;SDS011;32098;49.448;7.904;2023-02-24T01:22:45;43.63;;;23.97;;
46391;SDS011;32098;49.448;7.904;2023-02-24T01:25:16;45.23;;;25.70;;
46391;SDS011;32098;49.448;7.904;2023-02-24T01:27:46;41.00;;;23.57;;
46391;SDS011;32098;49.448;7.904;2023-02-24T01:30:13;43.17;;;23.87;;
46391;SDS011;32098;49.448;7.904;2023-02-24T01:32:42;42.83;;;22.83;;
46391;SDS011;32098;49.448;7.904;2023-02-24T01:35:09;45.93;;;24.47;;
46391;SDS011;32098;49.448;7.904;2023-02-24T01:37:37;41.40;;;22.97;;
46391;SDS011;32098;49.448;7.904;2023-02-24T01:40:06;46.77;;;24.37;;
46391;SDS011;32098;49.448;7.904;2023-02-24T01:42:40;42.83;;;23.30;;
46391;SDS011;32098;49.448;7.904;2023-02-24T01:45:13;43.63;;;23.27;;
46391;SDS011;32098;49.448;7.904;2023-02-24T01:47:42;41.93;;;23.20;;
46391;SDS011;32098;49.448;7.904;2023-02-24T01:50:13;42.97;;;23.13;;
46391;SDS011;32098;49.448;7.904;2023-02-24T01:52:44;44.53;;;24.63;;
46391;SDS011;32098;49.448;7.904;2023-02-24T01:55:15;42.23;;;23.93;;
46391;SDS011;32098;49.448;7.904;2023-02-24T01:57:49;45.20;;;24.07;;
46391;SDS011;32098;49.448;7.904;2023-02-24T02:00:18;43.83;;;23.80;;
46391;SDS011;32098;49.448;7.904;2023-02-24T02:02:59;44.00;;;24.23;;
46391;SDS011;32098;49.448;7.904;2023-02-24T02:05:33;44.13;;;23.53;;
46391;SDS011;32098;49.448;7.904;2023-02-24T02:08:03;44.40;;;23.10;;
46391;SDS011;32098;49.448;7.904;2023-02-24T02:10:30;44.90;;;23.10;;
46391;SDS011;32098;49.448;7.904;2023-02-24T02:13:00;44.93;;;23.17;;
46391;SDS011;32098;49.448;7.904;2023-02-24T02:15:34;44.30;;;24.20;;
46391;SDS011;32098;49.448;7.904;2023-02-24T02:18:13;46.03;;;23.80;;
46391;SDS011;32098;49.448;7.904;2023-02-24T02:21:07;41.10;;;22.17;;
46391;SDS011;32098;49.448;7.904;2023-02-24T02:29:40;44.87;;;23.67;;
46391;SDS011;32098;49.448;7.904;2023-02-24T02:35:33;44.47;;;23.37;;
46391;SDS011;32098;49.448;7.904;2023-02-24T02:38:25;44.53;;;23.50;;
46391;SDS011;32098;49.448;7.904;2023-02-24T02:41:46;45.37;;;23.57;;
46391;SDS011;32098;49.448;7.904;2023-02-24T02:46:41;42.97;;;22.97;;
46391;SDS011;32098;49.448;7.904;2023-02-24T02:49:13;43.73;;;22.90;;
46391;SDS011;32098;49.448;7.904;2023-02-24T02:51:51;44.60;;;23.30;;
46391;SDS011;32098;49.448;7.904;2023-02-24T02:57:10;44.40;;;24.17;;
46391;SDS011;32098;49.448;7.904;2023-02-24T02:59:44;43.30;;;22.27;;
46391;SDS011;32098;49.448;7.904;2023-02-24T03:02:17;41.40;;;22.57;;
46391;SDS011;32098;49.448;7.904;2023-02-24T03:04:49;41.93;;;22.43;;
46391;SDS011;32098;49.448;7.904;2023-02-24T03:07:20;43.43;;;22.07;;
46391;SDS011;32098;49.448;7.904;2023-02-24T03:09:50;42.73;;;22.37;;
46391;SDS011;32098;49.448;7.904;2023-02-24T03:12:22;43.00;;;23.03;;
46391;SDS011;32098;49.448;7.904;2023-02-24T03:14:55;42.50;;;21.50;;
46391;SDS011;32098;49.448;7.904;2023-02-24T03:17:26;42.43;;;20.77;;
46391;SDS011;32098;49.448;7.904;2023-02-24T03:20:08;44.90;;;22.27;;
46391;SDS011;32098;49.448;7.904;2023-02-24T03:22:45;41.10;;;21.57;;
46391;SDS011;32098;49.448;7.904;2023-02-24T03:25:21;40.37;;;21.60;;
46391;SDS011;32098;49.448;7.904;2023-02-24T03:27:58;40.70;;;21.90;;
46391;SDS011;32098;49.448;7.904;2023-02-24T03:30:37;41.97;;;21.43;;
46391;SDS011;32098;49.448;7.904;2023-02-24T03:33:34;40.67;;;21.50;;
46391;SDS011;32098;49.448;7.904;2023-02-24T03:36:05;41.40;;;21.57;;
46391;SDS011;32098;49.448;7.904;2023-02-24T03:38:34;46.03;;;22.13;;
46391;SDS011;32098;49.448;7.904;2023-02-24T03:41:04;40.60;;;20.97;;
46391;SDS011;32098;49.448;7.904;2023-02-24T03:43:42;41.57;;;21.87;;
46391;SDS011;32098;49.448;7.904;2023-02-24T03:46:13;37.27;;;20.07;;
46391;SDS011;32098;49.448;7.904;2023-02-24T03:48:47;37.60;;;20.27;;
46391;SDS011;32098;49.448;7.904;2023-02-24T03:51:23;40.40;;;21.47;;
46391;SDS011;32098;49.448;7.904;2023-02-24T03:54:02;40.90;;;21.33;;
46391;SDS011;32098;49.448;7.904;2023-02-24T04:02:24;42.50;;;21.90;;
46391;SDS011;32098;49.448;7.904;2023-02-24T04:05:02;39.77;;;20.70;;
46391;SDS011;32098;49.448;7.904;2023-02-24T04:08:01;38.97;;;20.47;;
46391;SDS011;32098;49.448;7.904;2023-02-24T04:10:40;38.33;;;20.27;;
46391;SDS011;32098;49.448;7.904;2023-02-24T04:13:26;43.60;;;22.07;;
46391;SDS011;32098;49.448;7.904;2023-02-24T04:16:14;36.83;;;20.47;;
46391;SDS011;32098;49.448;7.904;2023-02-24T04:18:58;35.20;;;18.63;;
46391;SDS011;32098;49.448;7.904;2023-02-24T04:21:33;40.40;;;20.37;;
46391;SDS011;32098;49.448;7.904;2023-02-24T04:24:03;42.60;;;21.37;;
46391;SDS011;32098;49.448;7.904;2023-02-24T04:26:37;35.70;;;19.83;;
46391;SDS011;32098;49.448;7.904;2023-02-24T04:29:09;40.77;;;21.43;;
46391;SDS011;32098;49.448;7.904;2023-02-24T04:31:57;38.70;;;20.40;;
46391;SDS011;32098;49.448;7.904;2023-02-24T04:34:29;41.90;;;20.47;;
46391;SDS011;32098;49.448;7.904;2023-02-24T04:36:59;39.00;;;20.03;;
46391;SDS011;32098;49.448;7.904;2023-02-24T04:39:29;40.70;;;20.47;;
46391;SDS011;32098;49.448;7.904;2023-02-24T04:41:59;37.30;;;19.87;;
46391;SDS011;32098;49.448;7.904;2023-02-24T04:44:29;37.07;;;19.90;;
46391;SDS011;32098;49.448;7.904;2023-02-24T04:46:55;38.37;;;19.93;;
46391;SDS011;32098;49.448;7.904;2023-02-24T04:49:22;36.77;;;19.47;;
46391;SDS011;32098;49.448;7.904;2023-02-24T04:51:49;39.43;;;20.23;;
46391;SDS011;32098;49.448;7.904;2023-02-24T04:54:18;39.53;;;19.83;;
46391;SDS011;32098;49.448;7.904;2023-02-24T04:56:49;39.97;;;20.03;;
46391;SDS011;32098;49.448;7.904;2023-02-24T04:59:18;38.27;;;20.40;;
46391;SDS011;32098;49.448;7.904;2023-02-24T05:01:47;38.90;;;21.03;;
46391;SDS011;32098;49.448;7.904;2023-02-24T05:04:18;39.93;;;20.00;;
46391;SDS011;32098;49.448;7.904;2023-02-24T05:06:45;43.03;;;20.63;;
46391;SDS011;32098;49.448;7.904;2023-02-24T05:09:16;40.20;;;21.83;;
46391;SDS011;32098;49.448;7.904;2023-02-24T05:11:44;40.57;;;21.53;;
46391;SDS011;32098;49.448;7.904;2023-02-24T05:14:16;38.43;;;20.47;;
46391;SDS011;32098;49.448;7.904;2023-02-24T05:16:47;36.90;;;19.73;;
46391;SDS011;32098;49.448;7.904;2023-02-24T05:19:15;37.17;;;20.30;;
46391;SDS011;32098;49.448;7.904;2023-02-24T05:22:03;40.57;;;20.13;;
46391;SDS011;32098;49.448;7.904;2023-02-24T05:24:32;40.23;;;20.10;;
46391;SDS011;32098;49.448;7.904;2023-02-24T05:27:00;37.37;;;20.17;;
46391;SDS011;32098;49.448;7.904;2023-02-24T05:29:34;38.97;;;21.27;;
46391;SDS011;32098;49.448;7.904;2023-02-24T05:32:02;37.60;;;20.40;;
46391;SDS011;32098;49.448;7.904;2023-02-24T05:34:31;38.90;;;21.00;;
46391;SDS011;32098;49.448;7.904;2023-02-24T05:36:59;38.33;;;20.47;;
46391;SDS011;32098;49.448;7.904;2023-02-24T05:39:29;39.70;;;20.83;;
46391;SDS011;32098;49.448;7.904;2023-02-24T05:41:56;42.20;;;20.57;;
46391;SDS011;32098;49.448;7.904;2023-02-24T05:44:24;41.57;;;20.63;;
46391;SDS011;32098;49.448;7.904;2023-02-24T05:46:54;37.67;;;20.83;;
46391;SDS011;32098;49.448;7.904;2023-02-24T05:49:30;45.00;;;21.60;;
46391;SDS011;32098;49.448;7.904;2023-02-24T05:52:04;38.80;;;20.77;;
46391;SDS011;32098;49.448;7.904;2023-02-24T05:54:37;44.23;;;21.77;;
46391;SDS011;32098;49.448;7.904;2023-02-24T05:57:07;39.40;;;20.40;;
46391;SDS011;32098;49.448;7.904;2023-02-24T05:59:38;41.13;;;21.50;;
46391;SDS011;32098;49.448;7.904;2023-02-24T06:02:07;42.40;;;22.30;;
46391;SDS011;32098;49.448;7.904;2023-02-24T06:04:39;42.50;;;21.40;;
46391;SDS011;32098;49.448;7.904;2023-02-24T06:07:28;41.57;;;21.67;;
46391;SDS011;32098;49.448;7.904;2023-02-24T06:10:00;37.87;;;19.47;;
46391;SDS011;32098;49.448;7.904;2023-02-24T06:12:28;33.37;;;19.70;;
46391;SDS011;32098;49.448;7.904;2023-02-24T06:15:00;35.47;;;19.20;;
46391;SDS011;32098;49.448;7.904;2023-02-24T06:17:33;38.23;;;20.93;;
46391;SDS011;32098;49.448;7.904;2023-02-24T06:20:00;40.60;;;20.43;;
46391;SDS011;32098;49.448;7.904;2023-02-24T06:22:26;36.63;;;19.03;;
46391;SDS011;32098;49.448;7.904;2023-02-24T06:24:54;37.30;;;19.83;;
46391;SDS011;32098;49.448;7.904;2023-02-24T06:27:22;39.30;;;20.60;;
46391;SDS011;32098;49.448;7.904;2023-02-24T06:29:51;39.60;;;19.43;;
46391;SDS011;32098;49.448;7.904;2023-02-24T06:32:20;34.73;;;18.97;;
46391;SDS011;32098;49.448;7.904;2023-02-24T06:34:50;34.80;;;17.67;;
46391;SDS011;32098;49.448;7.904;2023-02-24T06:37:17;35.50;;;18.90;;
46391;SDS011;32098;49.448;7.904;2023-02-24T06:39:44;34.33;;;18.50;;
46391;SDS011;32098;49.448;7.904;2023-02-24T06:42:12;34.67;;;18.83;;
46391;SDS011;32098;49.448;7.904;2023-02-24T06:44:39;34.17;;;18.00;;
46391;SDS011;32098;49.448;7.904;2023-02-24T06:47:09;33.30;;;18.20;;
46391;SDS011;32098;49.448;7.904;2023-02-24T06:49:40;38.97;;;19.97;;
46391;SDS011;32098;49.448;7.904;2023-02-24T06:52:08;34.70;;;18.43;;
46391;SDS011;32098;49.448;7.904;2023-02-24T06:54:45;33.60;;;18.07;;
46391;SDS011;32098;49.448;7.904;2023-02-24T06:57:13;35.90;;;18.83;;
46391;SDS011;32098;49.448;7.904;2023-02-24T06:59:40;36.87;;;17.90;;
46391;SDS011;32098;49.448;7.904;2023-02-24T07:02:08;35.43;;;17.73;;
46391;SDS011;32098;49.448;7.904;2023-02-24T07:04:38;37.07;;;18.53;;
46391;SDS011;32098;49.448;7.904;2023-02-24T07:07:10;37.30;;;19.23;;
46391;SDS011;32098;49.448;7.904;2023-02-24T07:09:40;42.07;;;19.23;;
46391;SDS011;32098;49.448;7.904;2023-02-24T07:12:08;38.17;;;18.67;;
46391;SDS011;32098;49.448;7.904;2023-02-24T07:14:36;34.67;;;17.90;;
46391;SDS011;32098;49.448;7.904;2023-02-24T07:17:03;30.43;;;16.87;;
46391;SDS011;32098;49.448;7.904;2023-02-24T07:19:31;36.43;;;18.47;;
46391;SDS011;32098;49.448;7.904;2023-02-24T07:21:58;38.63;;;19.20;;
46391;SDS011;32098;49.448;7.904;2023-02-24T07:24:30;37.70;;;19.53;;
46391;SDS011;32098;49.448;7.904;2023-02-24T07:27:13;36.20;;;18.43;;
46391;SDS011;32098;49.448;7.904;2023-02-24T07:29:50;37.13;;;19.93;;
46391;SDS011;32098;49.448;7.904;2023-02-24T07:32:19;49.03;;;26.93;;
46391;SDS011;32098;49.448;7.904;2023-02-24T07:34:51;49.57;;;26.97;;
46391;SDS011;32098;49.448;7.904;2023-02-24T07:37:18;41.00;;;22.10;;
46391;SDS011;32098;49.448;7.904;2023-02-24T07:39:46;66.00;;;36.30;;
46391;SDS011;32098;49.448;7.904;2023-02-24T07:42:12;54.30;;;29.63;;
46391;SDS011;32098;49.448;7.904;2023-02-24T07:44:43;51.60;;;26.90;;
46391;SDS011;32098;49.448;7.904;2023-02-24T07:47:12;42.63;;;23.10;;
46391;SDS011;32098;49.448;7.904;2023-02-24T07:49:43;45.83;;;23.30;;
46391;SDS011;32098;49.448;7.904;2023-02-24T07:52:10;39.40;;;19.67;;
46391;SDS011;32098;49.448;7.904;2023-02-24T07:54:37;40.17;;;20.47;;
46391;SDS011;32098;49.448;7.904;2023-02-24T07:57:06;40.80;;;20.63;;
46391;SDS011;32098;49.448;7.904;2023-02-24T07:59:39;39.20;;;19.87;;
46391;SDS011;32098;49.448;7.904;2023-02-24T08:02:11;37.73;;;19.87;;
46391;SDS011;32098;49.448;7.904;2023-02-24T08:04:39;39.80;;;19.20;;
46391;SDS011;32098;49.448;7.904;2023-02-24T08:07:06;41.67;;;20.60;;
46391;SDS011;32098;49.448;7.904;2023-02-24T08:09:41;44.53;;;20.87;;
46391;SDS011;32098;49.448;7.904;2023-02-24T08:12:11;43.33;;;20.90;;
46391;SDS011;32098;49.448;7.904;2023-02-24T08:14:44;37.00;;;19.10;;
46391;SDS011;32098;49.448;7.904;2023-02-24T08:17:17;38.03;;;19.83;;
46391;SDS011;32098;49.448;7.904;2023-02-24T08:19:46;43.17;;;20.93;;
46391;SDS011;32098;49.448;7.904;2023-02-24T08:22:15;40.83;;;20.47;;
46391;SDS011;32098;49.448;7.904;2023-02-24T08:24:46;43.87;;;21.37;;
46391;SDS011;32098;49.448;7.904;2023-02-24T08:27:22;42.97;;;20.67;;
46391;SDS011;32098;49.448;7.904;2023-02-24T08:29:51;44.90;;;21.73;;
46391;SDS011;32098;49.448;7.904;2023-02-24T08:32:39;40.30;;;20.00;;
46391;SDS011;32098;49.448;7.904;2023-02-24T08:35:13;43.67;;;20.70;;
46391;SDS011;32098;49.448;7.904;2023-02-24T08:37:46;47.00;;;21.60;;
46391;SDS011;32098;49.448;7.904;2023-02-24T08:43:08;40.47;;;19.67;;
46391;SDS011;32098;49.448;7.904;2023-02-24T08:45:43;45.80;;;21.57;;
46391;SDS011;32098;49.448;7.904;2023-02-24T08:48:20;41.57;;;21.13;;
46391;SDS011;32098;49.448;7.904;2023-02-24T08:50:59;39.70;;;20.47;;
46391;SDS011;32098;49.448;7.904;2023-02-24T08:53:29;40.50;;;19.90;;
46391;SDS011;32098;49.448;7.904;2023-02-24T08:56:01;38.53;;;20.57;;
46391;SDS011;32098;49.448;7.904;2023-02-24T08:58:35;41.73;;;20.50;;
46391;SDS011;32098;49.448;7.904;2023-02-24T09:01:24;39.90;;;21.03;;
46391;SDS011;32098;49.448;7.904;2023-02-24T09:04:08;39.93;;;20.53;;
46391;SDS011;32098;49.448;7.904;2023-02-24T09:06:43;40.07;;;19.87;;
46391;SDS011;32098;49.448;7.904;2023-02-24T09:09:20;38.50;;;20.57;;
46391;SDS011;32098;49.448;7.904;2023-02-24T09:11:53;37.13;;;18.97;;
46391;SDS011;32098;49.448;7.904;2023-02-24T09:14:29;39.93;;;20.47;;
46391;SDS011;32098;49.448;7.904;2023-02-24T09:17:02;37.77;;;19.27;;
46391;SDS011;32098;49.448;7.904;2023-02-24T09:19:50;36.10;;;19.90;;
46391;SDS011;32098;49.448;7.904;2023-02-24T09:22:19;37.57;;;19.10;;
46391;SDS011;32098;49.448;7.904;2023-02-24T09:24:58;36.43;;;17.90;;
46391;SDS011;32098;49.448;7.904;2023-02-24T09:27:44;35.07;;;19.03;;
46391;SDS011;32098;49.448;7.904;2023-02-24T09:30:18;33.53;;;18.77;;
46391;SDS011;32098;49.448;7.904;2023-02-24T09:33:08;35.17;;;18.23;;
46391;SDS011;32098;49.448;7.904;2023-02-24T09:35:57;33.27;;;18.30;;
46391;SDS011;32098;49.448;7.904;2023-02-24T09:38:36;31.97;;;17.83;;
46391;SDS011;32098;49.448;7.904;2023-02-24T09:47:18;30.27;;;17.47;;
46391;SDS011;32098;49.448;7.904;2023-02-24T09:49:57;27.92;;;14.48;;
46391;SDS011;32098;49.448;7.904;2023-02-24T09:52:30;28.88;;;14.88;;
46391;SDS011;32098;49.448;7.904;2023-02-24T10:09:27;29.23;;;15.33;;
46391;SDS011;32098;49.448;7.904;2023-02-24T10:12:01;28.00;;;14.73;;
46391;SDS011;32098;49.448;7.904;2023-02-24T10:17:51;26.73;;;13.55;;
46391;SDS011;32098;49.448;7.904;2023-02-24T10:20:22;24.17;;;13.13;;
46391;SDS011;32098;49.448;7.904;2023-02-24T10:23:07;24.77;;;14.27;;
46391;SDS011;32098;49.448;7.904;2023-02-24T10:26:10;30.20;;;16.70;;
46391;SDS011;32098;49.448;7.904;2023-02-24T10:28:59;30.33;;;15.60;;
46391;SDS011;32098;49.448;7.904;2023-02-24T10:31:38;29.88;;;15.63;;
46391;SDS011;32098;49.448;7.904;2023-02-24T10:34:12;28.63;;;15.88;;
46391;SDS011;32098;49.448;7.904;2023-02-24T10:36:51;26.00;;;15.07;;
46391;SDS011;32098;49.448;7.904;2023-02-24T10:41:53;27.15;;;14.82;;
46391;SDS011;32098;49.448;7.904;2023-02-24T10:44:46;23.67;;;14.00;;
46391;SDS011;32098;49.448;7.904;2023-02-24T10:47:28;26.15;;;14.18;;
46391;SDS011;32098;49.448;7.904;2023-02-24T10:50:00;25.87;;;14.00;;
46391;SDS011;32098;49.448;7.904;2023-02-24T10:52:29;23.70;;;13.03;;
46391;SDS011;32098;49.448;7.904;2023-02-24T10:55:35;24.58;;;13.15;;
46391;SDS011;32098;49.448;7.904;2023-02-24T11:01:26;22.80;;;12.40;;
46391;SDS011;32098;49.448;7.904;2023-02-24T11:04:33;24.67;;;12.77;;
46391;SDS011;32098;49.448;7.904;2023-02-24T11:07:22;22.07;;;11.77;;
46391;SDS011;32098;49.448;7.904;2023-02-24T11:10:14;23.30;;;12.87;;
46391;SDS011;32098;49.448;7.904;2023-02-24T11:12:52;21.67;;;11.70;;
46391;SDS011;32098;49.448;7.904;2023-02-24T11:15:49;19.30;;;11.45;;
46391;SDS011;32098;49.448;7.904;2023-02-24T11:18:38;20.40;;;11.20;;
46391;SDS011;32098;49.448;7.904;2023-02-24T11:21:11;16.02;;;9.68;;
46391;SDS011;32098;49.448;7.904;2023-02-24T11:23:41;17.95;;;10.55;;
46391;SDS011;32098;49.448;7.904;2023-02-24T11:26:15;19.90;;;10.77;;
46391;SDS011;32098;49.448;7.904;2023-02-24T11:34:37;19.13;;;11.00;;
46391;SDS011;32098;49.448;7.904;2023-02-24T11:37:30;18.33;;;10.37;;
46391;SDS011;32098;49.448;7.904;2023-02-24T11:40:11;18.57;;;9.83;;
46391;SDS011;32098;49.448;7.904;2023-02-24T11:43:17;19.90;;;10.00;;
46391;SDS011;32098;49.448;7.904;2023-02-24T11:45:47;19.20;;;9.70;;
46391;SDS011;32098;49.448;7.904;2023-02-24T11:48:23;16.47;;;9.17;;
46391;SDS011;32098;49.448;7.904;2023-02-24T11:51:03;17.00;;;10.07;;
46391;SDS011;32098;49.448;7.904;2023-02-24T11:53:46;18.80;;;10.63;;
46391;SDS011;32098;49.448;7.904;2023-02-24T11:56:27;16.57;;;9.73;;
46391;SDS011;32098;49.448;7.904;2023-02-24T11:59:00;16.47;;;10.10;;
46391;SDS011;32098;49.448;7.904;2023-02-24T12:01:42;19.10;;;10.50;;
46391;SDS011;32098;49.448;7.904;2023-02-24T12:04:19;18.83;;;10.43;;
46391;SDS011;32098;49.448;7.904;2023-02-24T12:15:50;15.18;;;7.93;;
46391;SDS011;32098;49.448;7.904;2023-02-24T12:18:38;15.97;;;8.20;;
46391;SDS011;32098;49.448;7.904;2023-02-24T12:21:22;15.70;;;8.57;;
46391;SDS011;32098;49.448;7.904;2023-02-24T12:23:56;14.00;;;8.00;;
46391;SDS011;32098;49.448;7.904;2023-02-24T12:26:30;13.35;;;7.70;;
46391;SDS011;32098;49.448;7.904;2023-02-24T12:37:24;12.23;;;7.53;;
46391;SDS011;32098;49.448;7.904;2023-02-24T12:42:36;10.40;;;6.03;;
46391;SDS011;32098;49.448;7.904;2023-02-24T12:45:16;13.27;;;6.65;;
46391;SDS011;32098;49.448;7.904;2023-02-24T12:58:51;12.80;;;6.97;;
46391;SDS011;32098;49.448;7.904;2023-02-24T13:04:14;12.60;;;7.17;;
46391;SDS011;32098;49.448;7.904;2023-02-24T13:12:08;13.85;;;6.38;;
46391;SDS011;32098;49.448;7.904;2023-02-24T13:14:50;10.95;;;6.22;;
46391;SDS011;32098;49.448;7.904;2023-02-24T13:17:20;14.18;;;6.53;;
46391;SDS011;32098;49.448;7.904;2023-02-24T13:19:49;12.32;;;7.30;;
46391;SDS011;32098;49.448;7.904;2023-02-24T13:27:43;11.07;;;6.53;;
46391;SDS011;32098;49.448;7.904;2023-02-24T13:30:31;10.70;;;6.33;;
46391;SDS011;32098;49.448;7.904;2023-02-24T13:33:06;13.23;;;7.57;;
46391;SDS011;32098;49.448;7.904;2023-02-24T13:36:29;11.20;;;6.43;;
46391;SDS011;32098;49.448;7.904;2023-02-24T13:38:43;10.60;;;6.30;;
46391;SDS011;32098;49.448;7.904;2023-02-24T13:44:19;11.73;;;5.88;;
46391;SDS011;32098;49.448;7.904;2023-02-24T13:52:43;12.00;;;5.78;;
46391;SDS011;32098;49.448;7.904;2023-02-24T13:55:23;9.13;;;5.53;;
46391;SDS011;32098;49.448;7.904;2023-02-24T14:01:21;10.47;;;6.03;;
46391;SDS011;32098;49.448;7.904;2023-02-24T14:04:35;9.68;;;5.90;;
46391;SDS011;32098;49.448;7.904;2023-02-24T14:07:25;9.83;;;6.10;;
46391;SDS011;32098;49.448;7.904;2023-02-24T14:09:54;12.07;;;6.25;;
46391;SDS011;32098;49.448;7.904;2023-02-24T14:12:24;11.60;;;6.20;;
46391;SDS011;32098;49.448;7.904;2023-02-24T14:14:56;11.67;;;6.50;;
46391;SDS011;32098;49.448;7.904;2023-02-24T14:17:33;10.17;;;5.80;;
46391;SDS011;32098;49.448;7.904;2023-02-24T14:22:43;10.60;;;6.13;;
46391;SDS011;32098;49.448;7.904;2023-02-24T14:25:13;9.07;;;5.13;;
46391;SDS011;32098;49.448;7.904;2023-02-24T14:27:44;11.63;;;6.10;;
46391;SDS011;32098;49.448;7.904;2023-02-24T14:30:26;10.50;;;6.07;;
46391;SDS011;32098;49.448;7.904;2023-02-24T14:33:00;10.07;;;6.23;;
46391;SDS011;32098;49.448;7.904;2023-02-24T14:35:38;11.43;;;5.90;;
46391;SDS011;32098;49.448;7.904;2023-02-24T14:41:22;9.07;;;5.50;;
46391;SDS011;32098;49.448;7.904;2023-02-24T14:43:50;10.07;;;5.63;;
46391;SDS011;32098;49.448;7.904;2023-02-24T14:46:18;10.13;;;5.40;;
46391;SDS011;32098;49.448;7.904;2023-02-24T14:48:50;10.23;;;6.07;;
46391;SDS011;32098;49.448;7.904;2023-02-24T14:51:23;10.67;;;5.73;;
46391;SDS011;32098;49.448;7.904;2023-02-24T14:53:58;9.53;;;5.63;;
46391;SDS011;32098;49.448;7.904;2023-02-24T14:56:32;8.57;;;5.07;;
46391;SDS011;32098;49.448;7.904;2023-02-24T15:01:43;9.20;;;5.30;;
46391;SDS011;32098;49.448;7.904;2023-02-24T15:04:39;8.17;;;5.33;;
46391;SDS011;32098;49.448;7.904;2023-02-24T15:07:22;8.30;;;5.10;;
46391;SDS011;32098;49.448;7.904;2023-02-24T15:09:54;10.13;;;5.17;;
46391;SDS011;32098;49.448;7.904;2023-02-24T15:15:05;9.63;;;5.97;;
46391;SDS011;32098;49.448;7.904;2023-02-24T15:17:38;8.00;;;5.30;;
46391;SDS011;32098;49.448;7.904;2023-02-24T15:22:51;13.07;;;6.20;;
46391;SDS011;32098;49.448;7.904;2023-02-24T15:25:19;8.70;;;5.00;;
46391;SDS011;32098;49.448;7.904;2023-02-24T15:28:20;8.63;;;5.10;;
46391;SDS011;32098;49.448;7.904;2023-02-24T15:33:36;9.07;;;5.30;;
46391;SDS011;32098;49.448;7.904;2023-02-24T15:36:07;10.03;;;5.40;;
46391;SDS011;32098;49.448;7.904;2023-02-24T15:38:38;7.47;;;4.97;;
46391;SDS011;32098;49.448;7.904;2023-02-24T15:41:08;8.70;;;5.73;;
46391;SDS011;32098;49.448;7.904;2023-02-24T15:46:28;8.67;;;5.67;;
46391;SDS011;32098;49.448;7.904;2023-02-24T15:48:57;8.53;;;5.27;;
46391;SDS011;32098;49.448;7.904;2023-02-24T15:51:36;7.80;;;5.00;;
46391;SDS011;32098;49.448;7.904;2023-02-24T15:54:11;9.40;;;5.33;;
46391;SDS011;32098;49.448;7.904;2023-02-24T15:56:42;11.87;;;5.87;;
46391;SDS011;32098;49.448;7.904;2023-02-24T15:59:14;10.87;;;5.60;;
46391;SDS011;32098;49.448;7.904;2023-02-24T16:01:42;8.50;;;5.17;;
46391;SDS011;32098;49.448;7.904;2023-02-24T16:04:09;8.60;;;5.70;;
46391;SDS011;32098;49.448;7.904;2023-02-24T16:06:36;10.40;;;5.97;;
46391;SDS011;32098;49.448;7.904;2023-02-24T16:09:15;8.77;;;5.37;;
46391;SDS011;32098;49.448;7.904;2023-02-24T16:11:45;10.90;;;5.40;;
46391;SDS011;32098;49.448;7.904;2023-02-24T16:14:14;9.57;;;5.43;;
46391;SDS011;32098;49.448;7.904;2023-02-24T16:16:44;9.33;;;5.50;;
46391;SDS011;32098;49.448;7.904;2023-02-24T16:19:14;10.13;;;6.03;;
46391;SDS011;32098;49.448;7.904;2023-02-24T16:21:42;10.30;;;6.03;;
46391;SDS011;32098;49.448;7.904;2023-02-24T16:24:09;10.37;;;6.40;;
46391;SDS011;32098;49.448;7.904;2023-02-24T16:26:37;9.90;;;5.87;;
46391;SDS011;32098;49.448;7.904;2023-02-24T16:29:06;10.90;;;5.90;;
46391;SDS011;32098;49.448;7.904;2023-02-24T16:31:40;10.87;;;6.37;;
46391;SDS011;32098;49.448;7.904;2023-02-24T16:34:09;12.63;;;6.00;;
46391;SDS011;32098;49.448;7.904;2023-02-24T16:36:39;10.70;;;5.77;;
46391;SDS011;32098;49.448;7.904;2023-02-24T16:39:09;9.60;;;5.57;;
46391;SDS011;32098;49.448;7.904;2023-02-24T16:41:37;10.70;;;6.43;;
46391;SDS011;32098;49.448;7.904;2023-02-24T16:44:06;11.33;;;6.10;;
46391;SDS011;32098;49.448;7.904;2023-02-24T16:46:34;10.27;;;6.03;;
46391;SDS011;32098;49.448;7.904;2023-02-24T16:49:05;10.43;;;6.07;;
46391;SDS011;32098;49.448;7.904;2023-02-24T16:51:35;9.20;;;5.57;;
46391;SDS011;32098;49.448;7.904;2023-02-24T16:54:04;8.90;;;5.87;;
46391;SDS011;32098;49.448;7.904;2023-02-24T16:56:32;8.73;;;5.50;;
46391;SDS011;32098;49.448;7.904;2023-02-24T16:58:58;10.63;;;6.23;;
46391;SDS011;32098;49.448;7.904;2023-02-24T17:01:25;10.27;;;5.80;;
46391;SDS011;32098;49.448;7.904;2023-02-24T17:03:52;11.00;;;5.97;;
46391;SDS011;32098;49.448;7.904;2023-02-24T17:06:19;10.23;;;6.00;;
46391;SDS011;32098;49.448;7.904;2023-02-24T17:08:49;10.57;;;6.50;;
46391;SDS011;32098;49.448;7.904;2023-02-24T17:11:17;10.00;;;6.23;;
46391;SDS011;32098;49.448;7.904;2023-02-24T17:13:45;10.07;;;5.93;;
46391;SDS011;32098;49.448;7.904;2023-02-24T17:16:13;11.43;;;6.40;;
46391;SDS011;32098;49.448;7.904;2023-02-24T17:18:40;9.67;;;5.73;;
46391;SDS011;32098;49.448;7.904;2023-02-24T17:21:08;10.37;;;5.57;;